createdAt,value
2022-08-27T00:02:21.743Z,9.73
2022-08-27T00:04:52.272Z,9.60
2022-08-27T00:07:21.736Z,9.50
2022-08-27T00:09:50.681Z,8.90
2022-08-27T00:12:19.650Z,7.70
2022-08-27T00:14:49.029Z,9.63
2022-08-27T00:17:18.147Z,10.10
2022-08-27T00:19:47.539Z,10.20
2022-08-27T00:22:18.299Z,9.50
2022-08-27T00:24:49.118Z,9.60
2022-08-27T00:27:19.245Z,9.50
2022-08-27T00:29:49.450Z,8.70
2022-08-27T00:32:19.380Z,9.03
2022-08-27T00:34:48.845Z,10.13
2022-08-27T00:37:20.076Z,9.10
2022-08-27T00:39:49.620Z,9.50
2022-08-27T00:42:18.967Z,8.80
2022-08-27T00:44:48.060Z,9.10
2022-08-27T00:47:23.367Z,9.53
2022-08-27T00:49:58.055Z,9.67
2022-08-27T00:52:32.728Z,10.20
2022-08-27T00:55:06.722Z,9.43
2022-08-27T00:57:38.859Z,8.47
2022-08-27T01:00:14.427Z,8.87
2022-08-27T01:02:46.661Z,9.17
2022-08-27T01:05:21.007Z,8.83
2022-08-27T01:07:57.159Z,9.13
2022-08-27T01:10:28.750Z,11.13
2022-08-27T01:12:58.345Z,10.83
2022-08-27T01:15:29.747Z,9.87
2022-08-27T01:18:00.339Z,9.07
2022-08-27T01:20:38.306Z,9.07
2022-08-27T01:23:16.771Z,10.00
2022-08-27T01:25:48.126Z,8.57
2022-08-27T01:28:20.232Z,9.50
2022-08-27T01:30:53.216Z,10.30
2022-08-27T01:33:23.806Z,9.97
2022-08-27T01:35:53.504Z,9.00
2022-08-27T01:38:31.074Z,9.93
2022-08-27T01:41:02.341Z,10.60
2022-08-27T01:43:32.471Z,9.20
2022-08-27T01:46:01.405Z,9.07
2022-08-27T01:48:30.660Z,10.00
2022-08-27T01:50:59.763Z,11.70
2022-08-27T01:53:29.290Z,10.20
2022-08-27T01:56:00.219Z,9.80
2022-08-27T01:58:33.833Z,8.60
2022-08-27T02:01:08.716Z,9.43
2022-08-27T02:03:39.349Z,8.87
2022-08-27T02:06:11.656Z,9.37
2022-08-27T02:08:41.944Z,9.67
2022-08-27T02:11:12.613Z,10.10
2022-08-27T02:13:41.673Z,10.23
2022-08-27T02:16:10.888Z,10.90
2022-08-27T02:18:41.641Z,10.63
2022-08-27T02:21:11.080Z,10.00
2022-08-27T02:23:42.113Z,8.30
2022-08-27T02:26:13.404Z,10.17
2022-08-27T02:28:42.799Z,10.00
2022-08-27T02:31:12.431Z,9.10
2022-08-27T02:33:42.364Z,9.10
2022-08-27T02:36:13.757Z,9.07
2022-08-27T02:38:42.842Z,9.67
2022-08-27T02:41:14.350Z,8.37
2022-08-27T02:43:43.603Z,10.53
2022-08-27T02:46:15.136Z,9.63
2022-08-27T02:48:44.972Z,9.70
2022-08-27T02:51:14.143Z,9.67
2022-08-27T02:53:44.007Z,8.77
2022-08-27T02:56:17.328Z,10.27
2022-08-27T02:58:51.550Z,8.90
2022-08-27T03:01:20.982Z,8.70
2022-08-27T03:03:49.951Z,9.30
2022-08-27T03:06:19.416Z,10.23
2022-08-27T03:08:53.191Z,9.47
2022-08-27T03:11:24.695Z,10.43
2022-08-27T03:13:54.130Z,9.97
2022-08-27T03:16:23.342Z,9.20
2022-08-27T03:18:51.809Z,10.17
2022-08-27T03:21:25.804Z,9.97
2022-08-27T03:23:55.793Z,9.70
2022-08-27T03:26:26.503Z,10.00
2022-08-27T03:28:56.129Z,10.30
2022-08-27T03:31:28.242Z,8.67
2022-08-27T03:34:01.072Z,10.50
2022-08-27T03:36:32.008Z,9.43
2022-08-27T03:39:01.633Z,8.63
2022-08-27T03:41:45.423Z,9.10
2022-08-27T03:44:22.094Z,9.93
2022-08-27T03:46:51.965Z,10.30
2022-08-27T03:49:22.564Z,10.20
2022-08-27T03:51:54.096Z,8.87
2022-08-27T03:54:23.275Z,9.33
2022-08-27T03:56:53.774Z,9.50
2022-08-27T03:59:22.713Z,9.90
2022-08-27T04:01:51.826Z,10.17
2022-08-27T04:04:21.178Z,10.73
2022-08-27T04:06:50.448Z,10.13
2022-08-27T04:09:19.857Z,10.20
2022-08-27T04:11:49.091Z,10.63
2022-08-27T04:14:26.828Z,11.77
2022-08-27T04:16:57.757Z,9.77
2022-08-27T04:19:30.294Z,10.30
2022-08-27T04:22:03.562Z,9.93
2022-08-27T04:24:35.484Z,10.53
2022-08-27T04:27:06.857Z,9.33
2022-08-27T04:29:37.342Z,11.27
2022-08-27T04:32:10.041Z,11.00
2022-08-27T04:34:39.385Z,11.20
2022-08-27T04:37:08.920Z,10.27
2022-08-27T04:39:39.500Z,10.57
2022-08-27T04:42:08.591Z,10.17
2022-08-27T04:44:39.005Z,10.57
2022-08-27T04:47:09.290Z,9.70
2022-08-27T04:49:38.719Z,10.30
2022-08-27T04:52:10.653Z,11.37
2022-08-27T04:54:41.075Z,10.80
2022-08-27T04:57:11.112Z,11.73
2022-08-27T04:59:44.073Z,10.83
2022-08-27T05:02:13.731Z,9.57
2022-08-27T05:04:43.092Z,10.80
2022-08-27T05:07:12.562Z,10.77
2022-08-27T05:09:42.078Z,10.83
2022-08-27T05:12:11.477Z,10.77
2022-08-27T05:14:42.407Z,10.57
2022-08-27T05:17:11.327Z,10.03
2022-08-27T05:19:40.593Z,11.67
2022-08-27T05:22:09.824Z,10.37
2022-08-27T05:24:39.392Z,10.80
2022-08-27T05:27:09.913Z,9.67
2022-08-27T05:29:43.437Z,10.60
2022-08-27T05:32:12.404Z,10.37
2022-08-27T05:34:41.805Z,11.80
2022-08-27T05:37:11.682Z,13.10
2022-08-27T05:39:40.806Z,11.70
2022-08-27T05:42:09.698Z,11.93
2022-08-27T05:44:41.395Z,12.27
2022-08-27T05:47:12.851Z,11.90
2022-08-27T05:49:41.858Z,12.97
2022-08-27T05:52:13.566Z,12.40
2022-08-27T05:54:42.567Z,11.77
2022-08-27T05:57:11.873Z,10.40
2022-08-27T05:59:58.376Z,10.50
2022-08-27T06:02:29.085Z,13.90
2022-08-27T06:04:58.325Z,12.10
2022-08-27T06:07:27.300Z,11.77
2022-08-27T06:09:58.123Z,11.23
2022-08-27T06:12:29.681Z,11.10
2022-08-27T06:14:58.593Z,11.13
2022-08-27T06:17:29.153Z,10.87
2022-08-27T06:19:58.609Z,10.00
2022-08-27T06:22:27.559Z,11.23
2022-08-27T06:24:57.242Z,10.20
2022-08-27T06:27:26.170Z,11.93
2022-08-27T06:29:55.024Z,12.37
2022-08-27T06:32:27.112Z,11.90
2022-08-27T06:34:57.868Z,11.83
2022-08-27T06:37:29.324Z,10.30
2022-08-27T06:39:58.400Z,11.77
2022-08-27T06:42:27.145Z,10.13
2022-08-27T06:44:55.890Z,13.40
2022-08-27T06:47:26.136Z,10.20
2022-08-27T06:49:57.851Z,12.33
2022-08-27T06:52:26.791Z,12.20
2022-08-27T06:54:58.198Z,12.00
2022-08-27T06:57:27.307Z,11.73
2022-08-27T06:59:56.327Z,10.80
2022-08-27T07:02:25.343Z,11.47
2022-08-27T07:04:56.494Z,12.30
2022-08-27T07:07:32.686Z,12.27
2022-08-27T07:10:06.433Z,12.40
2022-08-27T07:12:35.366Z,10.97
2022-08-27T07:15:04.878Z,10.33
2022-08-27T07:17:33.751Z,13.00
2022-08-27T07:20:05.250Z,11.43
2022-08-27T07:22:34.681Z,12.20
2022-08-27T07:25:03.858Z,12.47
2022-08-27T07:27:32.852Z,11.37
2022-08-27T07:30:03.210Z,12.90
2022-08-27T07:32:32.888Z,12.23
2022-08-27T07:35:28.881Z,12.73
2022-08-27T07:37:58.103Z,10.50
2022-08-27T07:40:30.224Z,12.43
2022-08-27T07:43:17.412Z,11.60
2022-08-27T07:45:50.769Z,12.00
2022-08-27T07:48:19.941Z,12.30
2022-08-27T07:50:50.691Z,10.53
2022-08-27T07:53:20.009Z,10.63
2022-08-27T07:55:49.834Z,11.53
2022-08-27T07:58:19.117Z,11.30
2022-08-27T08:00:48.595Z,11.50
2022-08-27T08:03:18.802Z,10.67
2022-08-27T08:05:49.369Z,10.70
2022-08-27T08:08:20.451Z,11.30
2022-08-27T08:10:50.137Z,10.97
2022-08-27T08:13:20.427Z,11.07
2022-08-27T08:15:49.756Z,12.10
2022-08-27T08:18:18.854Z,10.87
2022-08-27T08:21:10.043Z,10.33
2022-08-27T08:23:42.997Z,11.57
2022-08-27T08:26:13.475Z,12.17
2022-08-27T08:28:43.749Z,10.33
2022-08-27T08:31:13.417Z,11.10
2022-08-27T08:33:42.741Z,10.40
2022-08-27T08:36:15.011Z,11.07
2022-08-27T08:38:47.336Z,10.63
2022-08-27T08:41:39.620Z,11.23
2022-08-27T08:44:21.541Z,11.07
2022-08-27T08:46:57.689Z,10.60
2022-08-27T08:49:38.498Z,9.77
2022-08-27T08:52:31.401Z,11.67
2022-08-27T08:55:30.122Z,9.23
2022-08-27T08:58:16.166Z,9.30
2022-08-27T09:00:48.493Z,10.57
2022-08-27T09:03:18.496Z,10.47
2022-08-27T09:05:56.454Z,10.60
2022-08-27T09:08:36.449Z,10.53
2022-08-27T09:11:19.055Z,11.43
2022-08-27T09:13:54.652Z,11.53
2022-08-27T09:16:25.492Z,9.80
2022-08-27T09:18:57.332Z,10.90
2022-08-27T09:21:39.409Z,9.37
2022-08-27T09:24:16.667Z,11.40
2022-08-27T09:26:47.746Z,10.70
2022-08-27T09:29:21.083Z,10.27
2022-08-27T09:32:00.760Z,10.40
2022-08-27T09:34:37.640Z,10.57
2022-08-27T09:37:12.270Z,11.17
2022-08-27T09:39:51.814Z,10.00
2022-08-27T09:42:31.861Z,9.87
2022-08-27T09:45:01.323Z,9.70
2022-08-27T09:47:30.861Z,10.23
2022-08-27T09:50:09.929Z,10.23
2022-08-27T09:52:51.306Z,10.70
2022-08-27T09:55:36.205Z,9.80
2022-08-27T09:58:12.606Z,10.40
2022-08-27T10:00:43.125Z,11.03
2022-08-27T10:03:13.268Z,10.47
2022-08-27T10:05:51.876Z,10.00
2022-08-27T10:08:28.368Z,10.67
2022-08-27T10:11:01.391Z,9.13
2022-08-27T10:13:38.989Z,9.93
2022-08-27T10:16:34.448Z,10.17
2022-08-27T10:19:20.369Z,10.07
2022-08-27T10:21:57.004Z,9.60
2022-08-27T10:24:36.862Z,8.93
2022-08-27T10:27:19.409Z,10.00
2022-08-27T10:30:01.638Z,10.27
2022-08-27T10:32:57.684Z,9.27
2022-08-27T10:35:47.935Z,9.10
2022-08-27T10:38:39.047Z,9.70
2022-08-27T10:41:18.902Z,8.37
2022-08-27T10:44:24.314Z,8.93
2022-08-27T10:47:20.444Z,9.73
2022-08-27T10:50:07.632Z,8.23
2022-08-27T10:52:42.532Z,8.47
2022-08-27T10:55:21.763Z,8.07
2022-08-27T10:58:08.741Z,8.97
2022-08-27T11:00:47.248Z,8.67
2022-08-27T11:03:26.755Z,9.57
2022-08-27T11:06:11.755Z,9.90
2022-08-27T11:08:49.970Z,9.67
2022-08-27T11:14:34.669Z,7.20
2022-08-27T11:17:09.691Z,9.03
2022-08-27T11:19:54.589Z,8.10
2022-08-27T11:22:29.659Z,9.80
2022-08-27T11:25:06.075Z,8.33
2022-08-27T11:27:35.985Z,8.80
2022-08-27T11:30:09.920Z,8.63
2022-08-27T11:32:56.322Z,8.87
2022-08-27T11:35:40.396Z,9.53
2022-08-27T11:38:32.596Z,8.90
2022-08-27T11:42:02.085Z,8.50
2022-08-27T11:44:31.507Z,9.43
2022-08-27T11:47:16.226Z,7.77
2022-08-27T11:49:49.879Z,8.47
2022-08-27T11:52:31.344Z,9.03
2022-08-27T11:55:16.174Z,8.33
2022-08-27T11:57:45.578Z,8.87
2022-08-27T12:00:30.478Z,8.57
2022-08-27T12:03:02.715Z,9.60
2022-08-27T12:05:44.656Z,10.13
2022-08-27T12:08:28.011Z,10.30
2022-08-27T12:11:16.008Z,12.60
2022-08-27T12:13:57.249Z,22.33
2022-08-27T12:16:35.684Z,14.33
2022-08-27T12:19:39.156Z,11.73
2022-08-27T12:22:55.508Z,9.40
2022-08-27T12:25:27.843Z,8.87
2022-08-27T12:28:03.280Z,10.50
2022-08-27T12:30:35.672Z,10.10
2022-08-27T12:33:15.963Z,10.07
2022-08-27T12:35:50.139Z,10.37
2022-08-27T12:38:23.738Z,12.20
2022-08-27T12:41:04.143Z,10.60
2022-08-27T12:43:34.588Z,12.13
2022-08-27T12:46:07.869Z,10.90
2022-08-27T12:48:44.755Z,10.30
2022-08-27T12:51:19.914Z,10.13
2022-08-27T12:53:54.060Z,9.17
2022-08-27T12:56:54.480Z,9.63
2022-08-27T12:59:47.310Z,11.00
2022-08-27T13:02:32.129Z,10.87
2022-08-27T13:05:10.438Z,12.60
2022-08-27T13:07:48.145Z,11.90
2022-08-27T13:10:22.516Z,14.60
2022-08-27T13:13:05.819Z,10.50
2022-08-27T13:15:35.299Z,21.83
2022-08-27T13:18:07.751Z,10.43
2022-08-27T13:20:41.074Z,12.93
2022-08-27T13:23:20.435Z,11.00
2022-08-27T13:26:00.488Z,12.57
2022-08-27T13:28:32.900Z,14.30
2022-08-27T13:31:04.039Z,13.20
2022-08-27T13:33:36.353Z,11.17
2022-08-27T13:36:06.834Z,11.13
2022-08-27T13:38:40.326Z,11.60
2022-08-27T13:41:12.215Z,10.00
2022-08-27T13:43:45.842Z,9.90
2022-08-27T13:46:18.797Z,8.20
2022-08-27T13:48:51.185Z,7.50
2022-08-27T13:51:26.756Z,9.10
2022-08-27T13:54:13.411Z,7.30
2022-08-27T13:57:03.493Z,7.23
2022-08-27T13:59:34.134Z,7.47
2022-08-27T14:02:20.584Z,7.10
2022-08-27T14:05:05.499Z,6.57
2022-08-27T14:07:39.128Z,6.20
2022-08-27T14:10:29.944Z,5.90
2022-08-27T14:13:01.860Z,6.80
2022-08-27T14:15:35.991Z,6.97
2022-08-27T14:18:08.801Z,6.90
2022-08-27T14:20:38.074Z,7.63
2022-08-27T14:23:07.159Z,7.90
2022-08-27T14:25:36.265Z,7.23
2022-08-27T14:28:05.617Z,7.07
2022-08-27T14:30:36.310Z,7.17
2022-08-27T14:33:06.083Z,8.13
2022-08-27T14:35:37.422Z,8.20
2022-08-27T14:38:15.988Z,7.70
2022-08-27T14:40:45.372Z,7.43
2022-08-27T14:43:14.990Z,7.50
2022-08-27T14:45:48.032Z,7.70
2022-08-27T14:48:25.946Z,7.23
2022-08-27T14:50:59.451Z,7.03
2022-08-27T14:53:28.900Z,6.57
2022-08-27T14:55:59.542Z,6.73
2022-08-27T14:58:29.402Z,6.93
2022-08-27T15:01:00.647Z,6.47
2022-08-27T15:03:30.457Z,7.07
2022-08-27T15:05:59.609Z,7.97
2022-08-27T15:08:29.492Z,8.67
2022-08-27T15:11:03.575Z,8.43
2022-08-27T15:13:33.406Z,8.83
2022-08-27T15:16:04.911Z,9.80
2022-08-27T15:18:34.277Z,8.43
2022-08-27T15:21:03.479Z,9.93
2022-08-27T15:23:32.796Z,9.30
2022-08-27T15:26:02.594Z,10.30
2022-08-27T15:28:31.931Z,10.43
2022-08-27T15:31:01.105Z,9.13
2022-08-27T15:33:31.184Z,9.90
2022-08-27T15:36:04.105Z,10.70
2022-08-27T15:38:33.303Z,9.60
2022-08-27T15:41:02.693Z,9.30
2022-08-27T15:43:32.229Z,9.57
2022-08-27T15:46:01.023Z,9.70
2022-08-27T15:48:31.893Z,9.50
2022-08-27T15:51:13.620Z,9.50
2022-08-27T15:53:44.219Z,10.00
2022-08-27T15:56:14.403Z,10.07
2022-08-27T15:58:45.080Z,10.40
2022-08-27T16:01:18.490Z,9.50
2022-08-27T16:03:50.722Z,9.50
2022-08-27T16:06:19.890Z,10.10
2022-08-27T16:08:49.626Z,10.27
2022-08-27T16:11:18.783Z,11.07
2022-08-27T16:13:47.747Z,10.57
2022-08-27T16:16:17.344Z,10.10
2022-08-27T16:18:46.405Z,9.50
2022-08-27T16:21:17.077Z,11.07
2022-08-27T16:23:46.179Z,9.10
2022-08-27T16:26:16.645Z,11.03
2022-08-27T16:28:45.952Z,11.00
2022-08-27T16:31:15.585Z,11.07
2022-08-27T16:33:45.331Z,10.13
2022-08-27T16:36:14.481Z,10.00
2022-08-27T16:38:48.101Z,10.17
2022-08-27T16:41:17.421Z,9.53
2022-08-27T16:43:49.487Z,9.70
2022-08-27T16:46:18.426Z,8.93
2022-08-27T16:49:05.083Z,8.47
2022-08-27T16:51:36.300Z,9.50
2022-08-27T16:54:08.946Z,8.80
2022-08-27T16:56:38.132Z,8.87
2022-08-27T16:59:07.824Z,9.63
2022-08-27T17:01:37.167Z,11.63
2022-08-27T17:04:11.263Z,9.80
2022-08-27T17:06:44.865Z,9.60
2022-08-27T17:09:16.106Z,10.70
2022-08-27T17:11:50.313Z,10.00
2022-08-27T17:14:19.393Z,9.23
2022-08-27T17:16:50.013Z,9.60
2022-08-27T17:19:19.128Z,9.20
2022-08-27T17:21:48.609Z,10.90
2022-08-27T17:24:19.161Z,9.70
2022-08-27T17:26:48.162Z,10.00
2022-08-27T17:29:17.254Z,10.07
2022-08-27T17:31:46.560Z,9.07
2022-08-27T17:34:18.836Z,9.30
2022-08-27T17:36:48.146Z,9.53
2022-08-27T17:39:19.620Z,9.90
2022-08-27T17:41:52.001Z,8.90
2022-08-27T17:44:28.425Z,8.70
2022-08-27T17:47:03.023Z,8.40
2022-08-27T17:49:32.539Z,8.90
2022-08-27T17:52:05.902Z,10.13
2022-08-27T17:54:39.382Z,7.77
2022-08-27T17:57:18.814Z,8.00
2022-08-27T17:59:48.294Z,7.03
2022-08-27T18:02:23.629Z,7.90
2022-08-27T18:04:53.703Z,9.20
2022-08-27T18:07:22.859Z,7.60
2022-08-27T18:09:54.608Z,8.13
2022-08-27T18:12:28.205Z,8.20
2022-08-27T18:15:09.512Z,7.60
2022-08-27T18:17:39.414Z,9.33
2022-08-27T18:20:14.784Z,8.40
2022-08-27T18:22:48.554Z,8.27
2022-08-27T18:25:26.162Z,8.57
2022-08-27T18:27:59.932Z,8.30
2022-08-27T18:30:29.635Z,7.67
2022-08-27T18:32:59.297Z,8.07
2022-08-27T18:35:31.991Z,9.20
2022-08-27T18:38:01.962Z,7.50
2022-08-27T18:40:41.387Z,8.63
2022-08-27T18:43:10.979Z,8.47
2022-08-27T18:45:40.208Z,9.03
2022-08-27T18:48:15.955Z,9.37
2022-08-27T18:50:48.341Z,9.47
2022-08-27T18:53:20.484Z,7.97
2022-08-27T18:55:52.526Z,8.23
2022-08-27T18:58:22.103Z,9.80
2022-08-27T19:00:54.674Z,8.00
2022-08-27T19:03:29.435Z,8.67
2022-08-27T19:06:00.579Z,8.10
2022-08-27T19:08:30.423Z,9.37
2022-08-27T19:11:01.494Z,8.77
2022-08-27T19:13:31.339Z,8.07
2022-08-27T19:16:03.225Z,9.10
2022-08-27T19:18:35.736Z,8.60
2022-08-27T19:21:05.987Z,9.17
2022-08-27T19:23:35.949Z,8.53
2022-08-27T19:26:08.027Z,7.73
2022-08-27T19:28:42.168Z,8.60
2022-08-27T19:31:11.383Z,8.80
2022-08-27T19:33:40.775Z,9.90
2022-08-27T19:36:15.606Z,8.50
2022-08-27T19:38:47.039Z,7.63
2022-08-27T19:41:18.210Z,8.93
2022-08-27T19:43:47.489Z,7.80
2022-08-27T19:46:20.599Z,9.13
2022-08-27T19:48:49.588Z,7.70
2022-08-27T19:51:19.233Z,8.40
2022-08-27T19:53:48.194Z,9.43
2022-08-27T19:56:18.689Z,8.47
2022-08-27T19:58:47.968Z,9.13
2022-08-27T20:01:17.141Z,7.73
2022-08-27T20:03:46.689Z,8.40
2022-08-27T20:06:16.048Z,7.80
2022-08-27T20:08:45.104Z,6.97
2022-08-27T20:11:22.133Z,7.73
2022-08-27T20:13:52.067Z,7.73
2022-08-27T20:16:21.059Z,7.47
2022-08-27T20:18:50.463Z,7.47
2022-08-27T20:21:21.055Z,7.70
2022-08-27T20:23:50.110Z,7.97
2022-08-27T20:26:25.852Z,8.60
2022-08-27T20:28:55.224Z,8.77
2022-08-27T20:31:24.922Z,9.40
2022-08-27T20:33:54.296Z,9.27
2022-08-27T20:36:27.555Z,9.90
2022-08-27T20:38:57.176Z,9.70
2022-08-27T20:41:28.747Z,9.30
2022-08-27T20:43:58.431Z,8.33
2022-08-27T20:46:30.675Z,8.97
2022-08-27T20:48:59.927Z,9.77
2022-08-27T20:51:30.577Z,9.43
2022-08-27T20:54:22.867Z,9.50
2022-08-27T20:56:53.582Z,8.50
2022-08-27T20:59:39.928Z,9.30
2022-08-27T21:02:11.820Z,8.10
2022-08-27T21:04:45.763Z,9.40
2022-08-27T21:07:16.114Z,9.37
2022-08-27T21:09:56.569Z,8.13
2022-08-27T21:12:30.412Z,8.63
2022-08-27T21:15:00.554Z,9.77
2022-08-27T21:17:30.792Z,9.23
2022-08-27T21:20:00.312Z,8.90
2022-08-27T21:22:29.716Z,10.53
2022-08-27T21:24:58.810Z,9.60
2022-08-27T21:27:29.938Z,8.23
2022-08-27T21:30:00.227Z,9.63
2022-08-27T21:32:29.538Z,9.13
2022-08-27T21:34:59.576Z,7.87
2022-08-27T21:37:29.051Z,9.20
2022-08-27T21:39:58.212Z,8.57
2022-08-27T21:42:28.846Z,7.70
2022-08-27T21:44:58.101Z,7.83
2022-08-27T21:47:27.745Z,8.97
2022-08-27T21:49:56.790Z,8.53
2022-08-27T21:52:25.939Z,8.70
2022-08-27T21:54:55.126Z,8.90
2022-08-27T21:57:24.767Z,9.30
2022-08-27T21:59:55.423Z,8.00
2022-08-27T22:02:39.792Z,9.23
2022-08-27T22:05:10.946Z,8.77
2022-08-27T22:07:40.283Z,10.03
2022-08-27T22:10:10.420Z,8.83
2022-08-27T22:12:39.513Z,10.27
2022-08-27T22:15:11.808Z,11.07
2022-08-27T22:17:40.775Z,9.80
2022-08-27T22:20:11.785Z,9.30
2022-08-27T22:22:41.180Z,9.43
2022-08-27T22:25:11.041Z,9.30
2022-08-27T22:27:40.209Z,10.70
2022-08-27T22:30:13.849Z,10.10
2022-08-27T22:32:44.475Z,10.17
2022-08-27T22:35:16.424Z,9.90
2022-08-27T22:37:45.880Z,10.73
2022-08-27T22:40:20.027Z,9.80
2022-08-27T22:42:49.891Z,9.63
2022-08-27T22:45:22.429Z,8.50
2022-08-27T22:47:51.853Z,9.50
2022-08-27T22:50:23.741Z,9.40
2022-08-27T22:52:53.022Z,8.40
2022-08-27T22:55:24.455Z,10.00
2022-08-27T22:57:55.535Z,9.23
2022-08-27T23:00:29.177Z,8.80
2022-08-27T23:02:59.060Z,8.60
2022-08-27T23:05:29.373Z,8.80
2022-08-27T23:08:13.447Z,8.70
2022-08-27T23:10:44.369Z,8.70
2022-08-27T23:13:14.324Z,8.70
2022-08-27T23:15:44.764Z,8.33
2022-08-27T23:18:14.134Z,7.87
2022-08-27T23:20:43.247Z,7.53
2022-08-27T23:23:12.071Z,7.30
2022-08-27T23:25:57.973Z,7.10
2022-08-27T23:28:27.286Z,8.50
2022-08-27T23:30:57.962Z,7.07
2022-08-27T23:33:27.518Z,8.37
2022-08-27T23:35:56.667Z,7.23
2022-08-27T23:38:25.557Z,7.80
2022-08-27T23:40:54.915Z,8.57
2022-08-27T23:43:23.848Z,8.17
2022-08-27T23:45:53.385Z,8.30
2022-08-27T23:48:23.846Z,7.50
2022-08-27T23:50:53.310Z,7.70
2022-08-27T23:53:22.644Z,7.73
2022-08-27T23:55:52.485Z,7.03
2022-08-27T23:58:21.461Z,7.50
